Time;durP1;ratioP1;P1;durP2;ratioP2;P2;SDS_P1;SDS_P2;PMS_P1;PMS_P2;Temp;Humidity;BMP_temperature;BMP_pressure;BME280_temperature;BME280_humidity;BME280_pressure;Samples;Min_cycle;Max_cycle;Signal;HPM_P1;HPM_P2
2021/08/03 00:00:24;;;;;;;17.88;5.90;;;;;;;12.12;93.10;101344.91;5072496;28;20034;-65
2021/08/03 00:02:51;;;;;;;17.77;6.07;;;;;;;12.14;93.05;101340.47;5072614;28;20422;-66
2021/08/03 00:05:20;;;;;;;17.50;5.68;;;;;;;12.13;93.51;101336.09;5072315;28;20031;-66
2021/08/03 00:07:49;;;;;;;18.92;5.90;;;;;;;12.19;93.07;101330.81;5072282;28;20041;-66
2021/08/03 00:10:18;;;;;;;20.30;6.30;;;;;;;12.29;92.75;101330.84;5072401;28;20024;-65
2021/08/03 00:12:50;;;;;;;17.92;6.18;;;;;;;12.25;92.69;101329.97;5072479;28;20543;-64
2021/08/03 00:15:20;;;;;;;20.73;7.50;;;;;;;12.21;92.94;101323.75;5072379;28;20048;-65
2021/08/03 00:17:46;;;;;;;20.30;7.10;;;;;;;12.32;92.60;101328.19;5072067;28;20813;-68
2021/08/03 00:20:12;;;;;;;18.90;6.00;;;;;;;12.27;93.54;101325.53;5072363;28;20035;-66
2021/08/03 00:22:37;;;;;;;18.45;5.95;;;;;;;12.23;94.02;101325.53;5072472;28;20107;-66
2021/08/03 00:25:03;;;;;;;20.15;5.70;;;;;;;12.19;94.64;101322.84;5072480;28;20376;-65
2021/08/03 00:27:28;;;;;;;18.25;5.85;;;;;;;12.17;95.20;101326.38;5072414;28;20460;-67
2021/08/03 00:29:55;;;;;;;20.50;6.55;;;;;;;12.14;96.19;101323.69;5072518;28;20024;-66
2021/08/03 00:32:21;;;;;;;19.30;6.30;;;;;;;12.09;96.91;101328.97;5072003;28;20098;-66
2021/08/03 00:34:46;;;;;;;21.35;6.60;;;;;;;12.13;97.92;101333.44;5072698;28;20467;-65
2021/08/03 00:37:12;;;;;;;20.17;6.85;;;;;;;12.07;98.61;101336.03;5072182;28;20467;-62
2021/08/03 00:39:38;;;;;;;20.40;6.78;;;;;;;12.11;98.54;101337.81;5072547;28;20075;-63
2021/08/03 00:42:06;;;;;;;20.13;6.80;;;;;;;12.21;98.01;101329.03;5072516;28;20021;-63
2021/08/03 00:44:41;;;;;;;20.80;6.57;;;;;;;12.32;97.09;101329.09;5068200;28;20025;-63
2021/08/03 00:47:07;;;;;;;20.65;7.30;;;;;;;12.36;95.83;101322.03;5068791;28;20029;-63
2021/08/03 00:49:32;;;;;;;22.00;7.45;;;;;;;12.23;96.74;101320.22;5072213;28;20027;-63
2021/08/03 00:51:57;;;;;;;21.60;7.10;;;;;;;12.17;97.44;101318.41;5072054;28;20056;-61
2021/08/03 00:54:23;;;;;;;22.25;7.15;;;;;;;12.21;97.78;101318.44;5071991;28;20024;-63
2021/08/03 00:56:49;;;;;;;20.80;7.10;;;;;;;12.17;98.43;101313.13;5072382;28;20025;-60
2021/08/03 00:59:14;;;;;;;21.80;7.60;;;;;;;12.24;98.27;101308.75;5071950;28;20028;-61
2021/08/03 01:01:39;;;;;;;20.80;6.93;;;;;;;12.36;98.30;101306.13;5072097;28;20025;-61
2021/08/03 01:04:06;;;;;;;21.17;7.47;;;;;;;12.37;98.21;101302.63;5075667;28;20029;-61
2021/08/03 01:06:40;;;;;;;20.40;7.22;;;;;;;12.35;98.72;101310.56;5075573;28;20047;-61
2021/08/03 01:09:13;;;;;;;21.15;7.22;;;;;;;12.38;97.90;101302.63;5072059;28;20024;-62
2021/08/03 01:11:58;;;;;;;21.33;7.70;;;;;;;12.44;97.55;101303.53;5075613;28;20033;-62
2021/08/03 01:14:29;;;;;;;20.63;7.40;;;;;;;12.46;98.24;101302.63;5075530;28;20029;-62
2021/08/03 01:17:08;;;;;;;21.25;7.30;;;;;;;12.50;98.42;101304.44;5075460;28;20033;-62
2021/08/03 01:19:56;;;;;;;20.73;7.22;;;;;;;12.46;98.37;101302.63;5072081;28;20020;-63
2021/08/03 01:22:49;;;;;;;19.95;6.95;;;;;;;12.38;98.76;101304.41;5074193;28;20078;-62
2021/08/03 01:25:16;;;;;;;;;;;;;;;12.43;94.51;101305.28;5073662;28;20024;-62
2021/08/03 01:27:54;;;;;;;21.60;6.88;;;;;;;12.34;97.96;101294.66;5075282;28;19918;-62
2021/08/03 01:30:21;;;;;;;21.08;7.30;;;;;;;12.34;98.42;101297.31;5075397;28;20033;-63
2021/08/03 01:32:48;;;;;;;21.10;6.78;;;;;;;12.33;98.43;101290.22;5075546;28;20021;-63
2021/08/03 01:35:14;;;;;;;21.17;7.47;;;;;;;12.33;100.00;101295.53;5075070;28;20024;-63
2021/08/03 01:37:40;;;;;;;21.15;7.07;;;;;;;12.37;100.00;101300.84;5074949;28;20028;-63
2021/08/03 01:40:11;;;;;;;20.00;7.18;;;;;;;12.40;100.00;101296.44;5075256;28;20032;-62
2021/08/03 01:42:42;;;;;;;20.48;7.15;;;;;;;12.31;100.00;101300.81;5075324;28;20077;-62
2021/08/03 01:45:10;;;;;;;20.38;7.30;;;;;;;12.29;100.00;101299.94;5074759;28;20033;-63
2021/08/03 01:47:35;;;;;;;20.75;7.63;;;;;;;12.33;100.00;101306.13;5074863;28;20459;-63
2021/08/03 01:50:01;;;;;;;19.58;7.40;;;;;;;12.44;100.00;101303.53;5075176;28;20028;-62
2021/08/03 01:52:28;;;;;;;20.83;7.72;;;;;;;12.51;100.00;101292.94;5074549;28;20025;-63
2021/08/03 01:54:54;;;;;;;21.58;7.80;;;;;;;12.48;100.00;101300.91;5074672;28;20020;-62
2021/08/03 01:57:23;;;;;;;20.90;8.38;;;;;;;12.41;100.00;101301.75;5074914;28;20032;-62
2021/08/03 01:59:49;;;;;;;21.65;7.90;;;;;;;12.34;100.00;101292.00;5074466;28;20024;-62
2021/08/03 02:02:19;;;;;;;20.10;8.05;;;;;;;12.26;100.00;101291.06;5074467;28;20539;-62
2021/08/03 02:04:46;;;;;;;20.70;7.28;;;;;;;12.35;100.00;101297.31;5074409;28;20029;-67
2021/08/03 02:07:14;;;;;;;21.67;7.85;;;;;;;12.37;100.00;101294.66;5074241;28;20052;-68
2021/08/03 02:09:42;;;;;;;20.40;7.68;;;;;;;12.39;100.00;101287.59;5074356;28;20041;-65
2021/08/03 02:12:08;;;;;;;20.90;7.80;;;;;;;12.36;100.00;101290.22;5074446;28;20028;-67
2021/08/03 02:14:33;;;;;;;23.88;8.35;;;;;;;12.32;100.00;101291.09;5073683;28;20024;-65
2021/08/03 02:16:59;;;;;;;21.38;8.60;;;;;;;12.26;100.00;101289.31;5074188;28;20051;-66
2021/08/03 02:19:24;;;;;;;23.90;8.90;;;;;;;12.28;100.00;101297.28;5074243;28;20104;-66
2021/08/03 02:21:50;;;;;;;21.38;8.25;;;;;;;12.35;100.00;101284.06;5074059;28;20437;-66
2021/08/03 02:24:16;;;;;;;21.73;8.80;;;;;;;12.39;100.00;101292.88;5074032;28;20090;-65
2021/08/03 02:26:41;;;;;;;21.17;8.40;;;;;;;12.41;100.00;101291.16;5074309;28;20392;-65
2021/08/03 02:29:07;;;;;;;20.73;8.25;;;;;;;12.48;100.00;101295.59;5074148;28;20489;-65
2021/08/03 02:31:56;;;;;;;20.27;8.05;;;;;;;12.48;100.00;101300.00;5074218;28;20052;-65
2021/08/03 02:34:31;;;;;;;22.10;8.45;;;;;;;12.39;100.00;101295.53;5072423;28;20025;-65
2021/08/03 02:37:02;;;;;;;22.83;8.60;;;;;;;12.31;100.00;101294.66;5072178;28;20426;-69
2021/08/03 02:39:29;;;;;;;21.85;8.93;;;;;;;12.40;100.00;101291.16;5073880;28;20026;-65
2021/08/03 02:41:56;;;;;;;21.30;8.30;;;;;;;12.45;100.00;101294.69;5073652;28;20364;-65
2021/08/03 02:44:23;;;;;;;24.17;9.25;;;;;;;12.36;100.00;101279.63;5073546;28;20501;-67
2021/08/03 02:46:54;;;;;;;23.80;9.00;;;;;;;12.40;100.00;101286.72;5073917;28;20020;-64
2021/08/03 02:52:07;;;;;;;23.48;8.98;;;;;;;12.31;100.00;101297.28;4992085;28;20045;-64
2021/08/03 02:54:35;;;;;;;21.75;8.82;;;;;;;12.31;100.00;101290.22;4992002;28;20034;-67
2021/08/03 02:57:04;;;;;;;22.15;8.70;;;;;;;12.27;100.00;101288.44;4988272;28;20038;-68
2021/08/03 02:59:34;;;;;;;22.67;9.40;;;;;;;12.30;100.00;101295.50;4991828;28;20053;-67
2021/08/03 03:02:03;;;;;;;22.27;9.23;;;;;;;12.32;100.00;101284.03;4991943;28;20045;-66
2021/08/03 03:05:02;;;;;;;22.35;8.90;;;;;;;12.39;100.00;101279.63;4991865;28;20042;-63
2021/08/03 03:07:38;;;;;;;22.23;9.48;;;;;;;12.38;100.00;101272.59;4933746;29;20107;-64
2021/08/03 03:10:10;;;;;;;23.48;9.60;;;;;;;12.38;100.00;101277.88;4933880;29;20252;-67
2021/08/03 03:12:36;;;;;;;23.48;10.43;;;;;;;12.35;100.00;101272.56;4934027;29;20087;-65
2021/08/03 03:15:04;;;;;;;24.02;10.23;;;;;;;12.34;100.00;101271.66;4933862;29;20118;-66
2021/08/03 03:17:32;;;;;;;25.08;11.50;;;;;;;12.28;100.00;101270.78;4933748;29;20141;-65
2021/08/03 03:19:59;;;;;;;24.67;10.73;;;;;;;12.29;100.00;101264.56;4933930;29;20099;-67
2021/08/03 03:22:26;;;;;;;25.02;11.23;;;;;;;12.30;100.00;101269.00;4933605;29;20040;-66
2021/08/03 03:24:52;;;;;;;24.65;10.63;;;;;;;12.17;100.00;101266.31;4933479;29;20048;-67
2021/08/03 03:27:20;;;;;;;22.55;9.95;;;;;;;12.19;100.00;101272.50;4932944;29;20157;-66
2021/08/03 03:29:46;;;;;;;23.65;10.57;;;;;;;12.20;100.00;101258.38;4989453;28;20096;-62
2021/08/03 03:32:12;;;;;;;23.95;10.10;;;;;;;12.33;100.00;101253.09;5010984;28;20034;-63
2021/08/03 03:34:41;;;;;;;25.17;11.02;;;;;;;12.32;100.00;101252.22;5011193;28;20036;-61
2021/08/03 03:37:06;;;;;;;22.95;11.18;;;;;;;12.30;100.00;101253.09;5010737;28;20037;-63
2021/08/03 03:39:35;;;;;;;24.60;11.52;;;;;;;12.33;100.00;101250.47;5010937;28;20497;-63
2021/08/03 03:42:02;;;;;;;26.52;12.20;;;;;;;12.31;100.00;101250.44;5011093;28;20038;-63
2021/08/03 03:44:28;;;;;;;25.02;11.88;;;;;;;12.34;100.00;101253.13;5039302;28;20510;-63
2021/08/03 03:47:01;;;;;;;25.70;12.50;;;;;;;12.36;100.00;101264.63;5072567;28;20078;-61
2021/08/03 03:49:32;;;;;;;25.92;12.48;;;;;;;12.32;100.00;101253.97;5072555;28;20584;-63
2021/08/03 03:52:04;;;;;;;25.58;11.35;;;;;;;12.29;100.00;101262.81;5072945;28;20115;-63
2021/08/03 03:54:33;;;;;;;24.80;11.93;;;;;;;12.23;100.00;101262.78;5072507;28;20033;-62
2021/08/03 03:57:07;;;;;;;24.98;11.55;;;;;;;12.29;100.00;101257.53;5072372;28;20029;-62
2021/08/03 03:59:36;;;;;;;25.25;12.02;;;;;;;12.31;100.00;101253.09;5068571;28;20471;-62
2021/08/03 04:02:06;;;;;;;24.92;11.90;;;;;;;12.33;100.00;101259.31;5068788;28;20031;-62
2021/08/03 04:04:35;;;;;;;25.52;12.55;;;;;;;12.33;100.00;101258.41;5068208;28;20055;-63
2021/08/03 04:07:00;;;;;;;25.23;12.40;;;;;;;12.35;100.00;101260.19;5071906;28;20047;-62
2021/08/03 04:09:26;;;;;;;26.45;13.40;;;;;;;12.34;100.00;101265.50;5072555;28;20045;-61
2021/08/03 04:11:52;;;;;;;25.75;12.13;;;;;;;12.28;100.00;101261.03;5072260;28;20039;-61
2021/08/03 04:14:24;;;;;;;23.20;10.68;;;;;;;12.16;100.00;101269.84;5072382;28;20074;-61
2021/08/03 04:16:50;;;;;;;24.15;11.48;;;;;;;12.10;100.00;101267.16;5072357;28;20028;-62
2021/08/03 04:19:16;;;;;;;24.65;10.50;;;;;;;12.19;100.00;101261.91;5072121;28;20029;-64
2021/08/03 04:21:42;;;;;;;23.38;11.13;;;;;;;12.23;100.00;101262.78;5072525;28;20151;-64
2021/08/03 04:24:08;;;;;;;24.15;11.77;;;;;;;12.22;100.00;101266.34;5072503;28;20048;-61
2021/08/03 04:26:33;;;;;;;23.88;11.15;;;;;;;12.20;100.00;101266.31;5072340;28;20056;-65
2021/08/03 04:28:59;;;;;;;25.45;11.32;;;;;;;12.14;100.00;101263.63;5072265;28;20415;-66
2021/08/03 04:31:24;;;;;;;24.35;11.27;;;;;;;12.23;100.00;101275.16;5071112;28;20021;-62
2021/08/03 04:33:50;;;;;;;24.15;10.85;;;;;;;12.19;100.00;101261.91;5072035;28;20532;-64
2021/08/03 04:36:16;;;;;;;23.55;11.05;;;;;;;12.13;100.00;101272.47;5072125;28;20033;-64
2021/08/03 04:38:42;;;;;;;26.10;11.20;;;;;;;12.12;100.00;101254.78;5075618;28;20094;-62
2021/08/03 04:41:07;;;;;;;23.80;11.27;;;;;;;12.10;100.00;101253.91;5075988;28;20352;-62
2021/08/03 04:43:32;;;;;;;23.55;11.18;;;;;;;12.10;100.00;101251.25;5076113;28;20029;-62
2021/08/03 04:45:58;;;;;;;25.02;11.60;;;;;;;12.07;100.00;101250.34;5076227;28;20028;-61
2021/08/03 04:48:23;;;;;;;22.42;10.93;;;;;;;12.08;100.00;101252.13;5076081;28;20033;-62
2021/08/03 04:50:48;;;;;;;24.58;12.15;;;;;;;12.08;100.00;101245.06;5075741;28;20028;-60
2021/08/03 04:53:14;;;;;;;25.65;11.80;;;;;;;12.01;100.00;101243.25;5076229;28;20490;-62
2021/08/03 04:55:39;;;;;;;25.40;12.35;;;;;;;12.03;100.00;101249.47;5075821;28;20478;-61
2021/08/03 04:58:05;;;;;;;25.17;12.00;;;;;;;12.05;100.00;101242.41;5075796;28;20113;-62
2021/08/03 05:00:30;;;;;;;24.27;11.98;;;;;;;12.09;100.00;101248.63;5075775;28;20017;-61
2021/08/03 05:02:55;;;;;;;23.98;12.18;;;;;;;12.12;100.00;101246.84;5075594;28;20024;-61
2021/08/03 05:05:21;;;;;;;25.58;12.40;;;;;;;12.23;100.00;101243.34;5074241;28;20078;-63
2021/08/03 05:07:53;;;;;;;25.67;13.20;;;;;;;12.28;100.00;101250.44;5075429;28;20044;-61
2021/08/03 05:10:19;;;;;;;26.52;13.93;;;;;;;12.28;100.00;101244.28;5075310;28;20029;-62
2021/08/03 05:12:44;;;;;;;26.83;13.40;;;;;;;12.37;100.00;101233.69;5075747;28;20021;-61
2021/08/03 05:15:10;;;;;;;27.40;14.73;;;;;;;12.52;100.00;101240.78;5075444;28;20024;-60
2021/08/03 05:17:35;;;;;;;28.13;16.13;;;;;;;12.59;100.00;101245.22;5075302;28;20429;-61
2021/08/03 05:20:01;;;;;;;27.30;15.45;;;;;;;12.62;100.00;101247.88;5072670;28;20070;-62
2021/08/03 05:22:27;;;;;;;27.10;15.55;;;;;;;12.65;100.00;101247.00;5080039;28;20047;-62
2021/08/03 05:25:01;;;;;;;27.50;15.07;;;;;;;12.64;100.00;101243.50;5077907;28;20027;-62
2021/08/03 05:27:27;;;;;;;26.83;15.52;;;;;;;12.65;100.00;101239.06;5081788;28;20031;-62
2021/08/03 05:29:52;;;;;;;27.73;15.98;;;;;;;12.69;100.00;101243.50;5080138;28;20036;-62
2021/08/03 05:32:18;;;;;;;28.02;16.40;;;;;;;12.71;100.00;101237.31;5079834;28;20021;-62
2021/08/03 05:34:43;;;;;;;29.15;17.15;;;;;;;12.70;100.00;101253.22;5080605;28;20464;-63
2021/08/03 05:37:08;;;;;;;29.20;17.67;;;;;;;12.81;100.00;101240.84;5081516;28;20040;-63
2021/08/03 05:39:34;;;;;;;30.50;18.98;;;;;;;12.78;100.00;101243.50;5079172;28;20024;-63
2021/08/03 05:42:00;;;;;;;29.63;18.33;;;;;;;12.83;100.00;101246.16;5080980;28;20039;-61
2021/08/03 05:44:26;;;;;;;29.92;18.00;;;;;;;12.87;100.00;101242.63;5080687;28;20060;-63
2021/08/03 05:46:52;;;;;;;30.48;18.63;;;;;;;12.98;100.00;101240.00;5080554;28;20524;-64
2021/08/03 05:49:17;;;;;;;29.15;19.33;;;;;;;13.05;100.00;101239.13;5080844;28;20016;-62
2021/08/03 05:51:42;;;;;;;32.75;21.08;;;;;;;13.15;100.00;101232.94;5079967;28;20021;-63
2021/08/03 05:54:08;;;;;;;31.30;21.10;;;;;;;13.24;100.00;101235.56;5081299;28;20068;-62
2021/08/03 05:56:33;;;;;;;34.35;25.10;;;;;;;13.39;100.00;101229.38;5080005;28;20051;-62
2021/08/03 05:58:59;;;;;;;37.00;27.05;;;;;;;13.39;100.00;101233.81;5080271;28;20024;-63
2021/08/03 06:01:24;;;;;;;36.63;27.80;;;;;;;13.50;100.00;101232.03;5080477;28;20534;-64
2021/08/03 06:03:49;;;;;;;38.10;29.27;;;;;;;13.55;100.00;101240.88;5079922;28;20032;-63
2021/08/03 06:06:18;;;;;;;38.17;28.73;;;;;;;13.65;100.00;101231.13;5079841;28;20086;-63
2021/08/03 06:08:44;;;;;;;38.60;30.38;;;;;;;13.70;100.00;101234.66;5079728;28;20044;-62
2021/08/03 06:11:16;;;;;;;39.10;30.50;;;;;;;13.80;100.00;101246.13;5081210;28;20032;-63
2021/08/03 06:13:46;;;;;;;40.75;31.88;;;;;;;13.79;100.00;101244.38;5077383;28;20100;-62
2021/08/03 06:16:15;;;;;;;41.40;31.27;;;;;;;13.82;100.00;101241.72;5080876;28;20085;-62
2021/08/03 06:18:44;;;;;;;40.30;32.17;;;;;;;13.88;100.00;101244.34;5073509;28;20056;-63
2021/08/03 06:21:11;;;;;;;39.72;32.28;;;;;;;14.01;100.00;101238.97;5077084;28;20115;-63
2021/08/03 06:23:37;;;;;;;41.55;32.85;;;;;;;14.05;100.00;101235.44;5075830;28;20077;-63
2021/08/03 06:26:06;;;;;;;39.40;31.45;;;;;;;14.02;99.72;101235.44;5079630;28;20031;-62
2021/08/03 06:28:32;;;;;;;39.80;31.70;;;;;;;14.12;100.00;101242.50;5077774;28;20039;-62
2021/08/03 06:30:58;;;;;;;41.70;31.95;;;;;;;14.22;100.00;101233.59;5075745;28;20082;-63
2021/08/03 06:33:24;;;;;;;40.22;32.33;;;;;;;14.24;99.72;101233.56;5075986;28;20028;-63
2021/08/03 06:35:51;;;;;;;43.13;33.35;;;;;;;14.26;100.00;101238.00;5076221;28;20028;-62
2021/08/03 06:38:17;;;;;;;41.10;31.45;;;;;;;14.42;99.54;101230.84;5075271;28;20028;-62
2021/08/03 06:41:01;;;;;;;42.53;33.90;;;;;;;14.57;99.26;101228.97;5076406;28;20030;-62
2021/08/03 06:43:29;;;;;;;42.03;33.10;;;;;;;14.65;98.28;101237.84;5079964;28;20100;-62
2021/08/03 06:46:07;;;;;;;41.15;33.13;;;;;;;14.79;97.33;101235.06;5077057;28;20109;-63
2021/08/03 06:48:36;;;;;;;40.47;32.35;;;;;;;14.90;95.54;101237.69;5076092;28;20028;-62
2021/08/03 06:51:11;;;;;;;43.05;33.80;;;;;;;15.02;95.58;101237.56;5080044;28;20032;-62
2021/08/03 06:53:40;;;;;;;41.95;33.03;;;;;;;14.98;95.11;101242.03;5077765;28;20017;-63
2021/08/03 06:56:06;;;;;;;42.10;33.03;;;;;;;15.09;95.44;101239.28;5074156;28;20501;-62
2021/08/03 06:58:42;;;;;;;42.60;32.80;;;;;;;15.21;93.52;101232.97;5075897;28;20060;-62
2021/08/03 07:01:18;;;;;;;42.60;33.78;;;;;;;15.27;94.83;101242.69;5076077;28;20458;-64
2021/08/03 07:03:47;;;;;;;40.53;32.38;;;;;;;15.36;93.61;101231.06;5075544;28;20107;-62
2021/08/03 07:06:17;;;;;;;40.58;32.45;;;;;;;15.45;93.66;101236.28;5078070;28;20027;-63
2021/08/03 07:08:43;;;;;;;42.75;32.72;;;;;;;15.63;92.93;101230.78;5075408;28;20048;-64
2021/08/03 07:11:10;;;;;;;44.20;34.88;;;;;;;15.72;91.93;101231.59;5078574;28;20379;-64
2021/08/03 07:13:37;;;;;;;41.83;32.92;;;;;;;15.94;92.15;101229.59;5076169;28;20020;-64
2021/08/03 07:16:03;;;;;;;42.63;33.67;;;;;;;16.04;88.35;101226.78;5078741;28;20027;-61
2021/08/03 07:18:29;;;;;;;43.13;34.60;;;;;;;16.13;88.50;101214.25;5075024;28;20494;-61
2021/08/03 07:20:56;;;;;;;43.33;34.42;;;;;;;16.22;86.12;101222.13;5078762;28;20027;-61
2021/08/03 07:23:21;;;;;;;44.03;34.67;;;;;;;16.35;86.67;101215.75;5072585;28;20415;-61
2021/08/03 07:25:50;;;;;;;43.72;33.25;;;;;;;16.48;83.02;101219.09;5069867;28;20029;-61
2021/08/03 07:28:15;;;;;;;44.88;34.80;;;;;;;16.54;82.23;101219.03;5072623;28;20418;-61
2021/08/03 07:30:42;;;;;;;43.58;33.67;;;;;;;16.60;81.45;101225.19;5072501;28;20070;-62
2021/08/03 07:33:11;;;;;;;40.20;31.75;;;;;;;16.63;80.53;101226.03;5071973;28;20040;-61
2021/08/03 07:35:39;;;;;;;39.70;31.92;;;;;;;16.71;79.79;101224.09;5072406;28;20471;-61
2021/08/03 07:38:05;;;;;;;40.88;32.55;;;;;;;16.81;80.00;101224.00;5072268;28;20028;-61
2021/08/03 07:40:30;;;;;;;39.17;30.23;;;;;;;16.70;78.28;101222.38;5072961;28;20038;-61
2021/08/03 07:42:55;;;;;;;40.67;30.80;;;;;;;16.56;79.52;101222.56;5073054;28;20434;-63
2021/08/03 07:45:21;;;;;;;37.08;28.38;;;;;;;16.55;79.34;101225.25;5072601;28;20448;-61
2021/08/03 07:47:46;;;;;;;38.67;29.25;;;;;;;16.67;79.77;101226.84;5072676;28;20496;-62
2021/08/03 07:50:13;;;;;;;36.38;27.17;;;;;;;16.61;77.93;101230.50;5072786;28;20099;-64
2021/08/03 07:52:38;;;;;;;36.92;28.33;;;;;;;16.73;76.93;101238.34;5072671;28;20408;-64
2021/08/03 07:55:04;;;;;;;35.50;25.98;;;;;;;16.92;76.38;101240.75;5072650;28;20020;-63
2021/08/03 07:57:29;;;;;;;35.45;26.50;;;;;;;17.04;75.78;101226.34;5072862;28;20557;-66
2021/08/03 07:59:55;;;;;;;35.60;26.02;;;;;;;17.25;75.58;101230.41;5072765;28;20024;-64
2021/08/03 08:02:21;;;;;;;33.50;25.67;;;;;;;17.48;75.05;101237.16;5072632;28;20458;-62
2021/08/03 08:04:47;;;;;;;34.13;24.63;;;;;;;17.50;74.08;101230.84;5072521;28;20099;-62
2021/08/03 08:07:12;;;;;;;34.25;24.77;;;;;;;17.55;74.65;101236.13;5073243;28;20111;-67
2021/08/03 08:09:37;;;;;;;35.05;24.13;;;;;;;17.67;73.72;101235.88;5078296;28;20040;-66
2021/08/03 08:12:03;;;;;;;33.97;24.83;;;;;;;17.76;73.07;101233.03;5076813;28;20039;-69
2021/08/03 08:14:30;;;;;;;33.25;24.40;;;;;;;17.87;71.93;101230.16;5077891;28;20021;-63
2021/08/03 08:16:55;;;;;;;32.65;22.80;;;;;;;17.96;71.05;101237.16;5078240;28;20036;-68
2021/08/03 08:19:20;;;;;;;34.35;23.45;;;;;;;17.94;70.87;101241.66;5075763;28;20017;-62
2021/08/03 08:21:46;;;;;;;33.40;23.45;;;;;;;17.80;71.14;101241.03;5077656;28;20111;-62
2021/08/03 08:24:11;;;;;;;32.42;23.35;;;;;;;17.82;71.54;101239.19;5077296;28;20123;-68
2021/08/03 08:26:37;;;;;;;32.45;23.38;;;;;;;17.77;70.52;101234.78;5077479;28;20048;-65
2021/08/03 08:29:02;;;;;;;33.78;23.63;;;;;;;17.81;71.50;101237.41;5072350;28;20356;-63
2021/08/03 08:31:28;;;;;;;32.13;22.70;;;;;;;17.74;70.53;101234.88;5078163;28;20028;-63
2021/08/03 08:33:53;;;;;;;31.77;22.58;;;;;;;17.77;70.90;101234.78;5075580;28;20028;-64
2021/08/03 08:36:18;;;;;;;32.25;21.35;;;;;;;17.81;71.20;101232.06;5078866;28;20024;-64
2021/08/03 08:38:44;;;;;;;32.17;21.77;;;;;;;17.97;71.30;101230.91;5077664;28;20024;-67
2021/08/03 08:41:12;;;;;;;31.27;21.23;;;;;;;17.91;70.47;101233.66;5074606;28;20429;-66
2021/08/03 08:43:39;;;;;;;29.77;21.65;;;;;;;18.11;69.85;101238.63;5077853;28;20025;-63
2021/08/03 08:46:06;;;;;;;31.63;21.58;;;;;;;18.20;69.15;101238.44;5077768;28;20032;-65
2021/08/03 08:48:32;;;;;;;31.30;21.83;;;;;;;18.10;69.31;101247.56;5076117;28;20024;-62
2021/08/03 08:50:58;;;;;;;31.20;21.50;;;;;;;18.15;69.55;101243.00;5076779;28;20041;-63
2021/08/03 08:53:26;;;;;;;33.10;22.60;;;;;;;18.19;68.51;101242.03;5078039;28;20052;-63
2021/08/03 08:55:52;;;;;;;32.22;23.40;;;;;;;18.23;69.29;101240.16;5078023;28;20031;-63
2021/08/03 08:58:17;;;;;;;31.02;22.33;;;;;;;18.20;69.86;101233.09;5078653;28;20111;-63
2021/08/03 09:00:42;;;;;;;32.33;23.20;;;;;;;18.30;69.85;101236.44;5076859;28;20016;-62
2021/08/03 09:03:08;;;;;;;32.67;22.00;;;;;;;18.38;69.47;101241.66;5076175;28;20104;-62
2021/08/03 09:05:37;;;;;;;30.23;20.75;;;;;;;18.40;68.98;101245.16;5077112;28;20046;-62
2021/08/03 09:08:05;;;;;;;29.20;19.85;;;;;;;18.50;68.91;101245.84;5077580;28;20411;-64
2021/08/03 09:10:37;;;;;;;28.25;18.30;;;;;;;18.49;67.47;101247.63;5078290;28;20025;-61
2021/08/03 09:13:10;;;;;;;27.48;17.27;;;;;;;18.67;67.46;101249.00;5073829;28;20439;-62
2021/08/03 09:15:38;;;;;;;26.10;16.02;;;;;;;18.72;64.53;101257.81;5076676;28;20368;-63
2021/08/03 09:18:15;;;;;;;25.92;14.85;;;;;;;18.68;65.32;101253.44;5073603;28;20028;-63
2021/08/03 09:20:42;;;;;;;25.45;14.38;;;;;;;18.67;63.66;101249.00;5074399;28;20493;-63
2021/08/03 09:23:08;;;;;;;26.58;16.00;;;;;;;18.92;64.51;101252.03;5076149;28;20077;-63
2021/08/03 09:25:34;;;;;;;26.05;15.60;;;;;;;19.26;63.51;101250.31;5080238;28;20032;-63
2021/08/03 09:28:07;;;;;;;26.15;14.15;;;;;;;19.28;62.29;101246.69;5081693;28;20030;-63
2021/08/03 09:30:36;;;;;;;25.17;13.77;;;;;;;19.27;62.05;101249.41;5080458;28;20024;-61
2021/08/03 09:33:02;;;;;;;24.77;12.93;;;;;;;19.54;61.70;101247.78;5077387;28;20032;-61
2021/08/03 09:35:28;;;;;;;23.88;12.85;;;;;;;19.45;61.40;101246.22;5080986;28;20024;-62
2021/08/03 09:37:55;;;;;;;24.30;13.23;;;;;;;19.55;61.46;101251.34;5077676;28;20042;-61
2021/08/03 09:40:22;;;;;;;23.58;13.23;;;;;;;19.66;61.15;101252.81;5080044;28;20186;-62
2021/08/03 09:42:58;;;;;;;23.80;13.23;;;;;;;19.69;62.11;101251.88;5074493;28;20044;-62
2021/08/03 09:45:25;;;;;;;24.20;13.63;;;;;;;19.51;60.37;101254.13;5074433;28;20021;-62
2021/08/03 09:47:50;;;;;;;24.08;13.43;;;;;;;19.80;61.60;101244.41;5075004;28;20450;-62
2021/08/03 09:50:18;;;;;;;26.48;14.30;;;;;;;19.77;60.30;101244.47;5074779;28;20020;-61
2021/08/03 09:52:45;;;;;;;26.75;14.52;;;;;;;19.92;58.81;101250.38;5074484;28;20028;-71
2021/08/03 09:55:10;;;;;;;23.95;13.63;;;;;;;19.99;59.39;101244.81;5074386;28;20033;-67
2021/08/03 09:57:37;;;;;;;24.77;13.75;;;;;;;20.10;58.08;101249.84;5074701;28;20028;-64
2021/08/03 10:00:23;;;;;;;25.42;13.07;;;;;;;20.37;59.56;101247.25;5074712;28;20040;-64
2021/08/03 10:02:49;;;;;;;23.60;13.13;;;;;;;20.50;57.78;101246.00;5070338;28;20039;-63
2021/08/03 10:05:14;;;;;;;24.88;13.32;;;;;;;20.21;57.62;101236.09;5069562;28;20021;-65
2021/08/03 10:07:40;;;;;;;22.33;11.13;;;;;;;20.16;56.78;101249.66;5071514;28;20107;-65
2021/08/03 10:10:07;;;;;;;22.42;11.57;;;;;;;20.33;58.54;101240.25;5074699;28;20425;-66
2021/08/03 10:12:33;;;;;;;27.13;15.13;;;;;;;20.32;56.14;101243.84;5074508;28;20020;-72
2021/08/03 10:14:58;;;;;;;24.65;14.02;;;;;;;20.41;56.03;101242.69;5074804;28;20032;-64
2021/08/03 10:17:24;;;;;;;26.10;15.18;;;;;;;20.16;57.47;101230.88;5074334;28;20368;-71
2021/08/03 10:19:49;;;;;;;25.25;14.63;;;;;;;19.99;58.60;101238.53;5074495;28;20052;-65
2021/08/03 10:22:21;;;;;;;25.60;14.23;;;;;;;20.12;58.71;101242.63;5074159;28;20158;-65
2021/08/03 10:24:56;;;;;;;24.33;13.15;;;;;;;20.48;58.84;101242.47;5074161;28;20464;-69
2021/08/03 10:27:22;;;;;;;22.85;12.38;;;;;;;20.71;57.26;101236.41;5074152;28;20021;-66
2021/08/03 10:29:52;;;;;;;23.35;12.88;;;;;;;20.87;55.28;101234.09;5074344;28;20040;-62
2021/08/03 10:32:41;;;;;;;22.95;12.65;;;;;;;21.19;56.59;101245.59;5073890;28;20109;-62
2021/08/03 10:35:15;;;;;;;21.77;11.25;;;;;;;21.23;54.73;101238.28;5073372;28;20013;-62
2021/08/03 10:37:59;;;;;;;25.30;13.77;;;;;;;21.24;55.32;101240.06;5070006;28;20360;-61
2021/08/03 10:40:49;;;;;;;21.20;9.98;;;;;;;21.28;54.85;101243.53;5071921;28;20060;-62
2021/08/03 10:43:22;;;;;;;23.98;10.70;;;;;;;21.28;54.64;101239.03;5085953;28;20032;-61
2021/08/03 10:46:09;;;;;;;21.65;9.98;;;;;;;21.35;53.93;101242.41;5073661;28;20479;-62
2021/08/03 10:48:37;;;;;;;23.33;11.40;;;;;;;21.39;52.98;101233.28;5073684;28;20024;-62
2021/08/03 10:51:18;;;;;;;21.42;10.90;;;;;;;21.63;54.50;101228.88;5074107;28;20108;-65
2021/08/03 10:54:09;;;;;;;22.77;11.32;;;;;;;22.31;54.37;101222.78;5070278;28;20020;-63
2021/08/03 10:56:55;;;;;;;23.10;12.30;;;;;;;22.04;53.78;101234.53;5072920;28;20105;-61
2021/08/03 10:59:37;;;;;;;23.25;11.63;;;;;;;22.41;53.98;101224.22;4992011;28;20080;-62
2021/08/03 11:02:07;;;;;;;22.63;12.20;;;;;;;22.88;51.60;101225.97;4992417;28;20085;-62
2021/08/03 11:04:42;;;;;;;23.17;11.45;;;;;;;23.55;51.01;101224.94;4992052;28;20398;-62
2021/08/03 11:07:34;;;;;;;23.23;11.80;;;;;;;23.79;49.26;101216.69;4991987;28;20026;-67
2021/08/03 11:10:14;;;;;;;21.30;9.67;;;;;;;23.64;48.83;101215.56;4986766;28;20038;-62
2021/08/03 11:12:45;;;;;;;21.50;9.68;;;;;;;23.70;48.98;101223.38;4988497;28;20035;-61
2021/08/03 11:15:22;;;;;;;22.65;10.30;;;;;;;23.90;48.52;101219.81;4989311;28;20571;-62
2021/08/03 11:17:51;;;;;;;22.30;10.43;;;;;;;23.83;46.98;101221.00;4990934;28;20134;-63